sensor_id;sensor_type;location;lat;lon;timestamp;pressure;altitude;pressure_sealevel;temperature;humidity
59650;BME280;46162;57.568;25.814;2022-08-21T00:00:55;101002.81;;;15.73;100.00
59650;BME280;46162;57.568;25.814;2022-08-21T00:03:24;101012.34;;;15.60;100.00
59650;BME280;46162;57.568;25.814;2022-08-21T00:05:54;101007.13;;;15.51;100.00
59650;BME280;46162;57.568;25.814;2022-08-21T00:08:22;101000.47;;;15.45;100.00
59650;BME280;46162;57.568;25.814;2022-08-21T00:10:51;101006.13;;;15.43;100.00
59650;BME280;46162;57.568;25.814;2022-08-21T00:13:20;101005.69;;;15.23;100.00
59650;BME280;46162;57.568;25.814;2022-08-21T00:15:49;101002.66;;;15.02;100.00
59650;BME280;46162;57.568;25.814;2022-08-21T00:18:18;101005.72;;;15.07;100.00
59650;BME280;46162;57.568;25.814;2022-08-21T00:20:47;101009.13;;;15.01;100.00
59650;BME280;46162;57.568;25.814;2022-08-21T00:23:17;101003.88;;;14.83;100.00
59650;BME280;46162;57.568;25.814;2022-08-21T00:25:46;101005.59;;;14.84;100.00
59650;BME280;46162;57.568;25.814;2022-08-21T00:28:15;101008.81;;;14.88;100.00
59650;BME280;46162;57.568;25.814;2022-08-21T00:30:44;101007.13;;;14.87;100.00
59650;BME280;46162;57.568;25.814;2022-08-21T00:33:13;101008.13;;;14.94;100.00
59650;BME280;46162;57.568;25.814;2022-08-21T00:35:42;101005.09;;;14.89;100.00
59650;BME280;46162;57.568;25.814;2022-08-21T00:38:11;100996.91;;;14.80;100.00
59650;BME280;46162;57.568;25.814;2022-08-21T00:40:44;100995.56;;;14.68;100.00
59650;BME280;46162;57.568;25.814;2022-08-21T00:43:16;101000.34;;;14.58;100.00
59650;BME280;46162;57.568;25.814;2022-08-21T00:45:45;101007.13;;;14.54;100.00
59650;BME280;46162;57.568;25.814;2022-08-21T00:48:14;100994.19;;;14.48;100.00
59650;BME280;46162;57.568;25.814;2022-08-21T00:50:46;101002.00;;;14.43;100.00
59650;BME280;46162;57.568;25.814;2022-08-21T00:53:16;101002.69;;;14.28;100.00
59650;BME280;46162;57.568;25.814;2022-08-21T00:55:46;100999.94;;;14.36;100.00
59650;BME280;46162;57.568;25.814;2022-08-21T00:58:16;100994.34;;;14.22;100.00
59650;BME280;46162;57.568;25.814;2022-08-21T01:00:48;100993.69;;;14.19;100.00
59650;BME280;46162;57.568;25.814;2022-08-21T01:03:21;100983.81;;;14.27;100.00
59650;BME280;46162;57.568;25.814;2022-08-21T01:05:50;100985.22;;;14.47;100.00
59650;BME280;46162;57.568;25.814;2022-08-21T01:08:20;100988.25;;;14.69;100.00
59650;BME280;46162;57.568;25.814;2022-08-21T01:10:52;100980.78;;;14.71;100.00
59650;BME280;46162;57.568;25.814;2022-08-21T01:13:26;100979.09;;;14.70;100.00
59650;BME280;46162;57.568;25.814;2022-08-21T01:15:58;100980.47;;;14.74;100.00
59650;BME280;46162;57.568;25.814;2022-08-21T01:18:28;100975.69;;;14.84;100.00
59650;BME280;46162;57.568;25.814;2022-08-21T01:21:07;100971.09;;;14.84;100.00
59650;BME280;46162;57.568;25.814;2022-08-21T01:23:42;100973.13;;;14.82;100.00
59650;BME280;46162;57.568;25.814;2022-08-21T01:26:14;100964.31;;;14.80;100.00
59650;BME280;46162;57.568;25.814;2022-08-21T01:28:47;100962.81;;;14.70;100.00
59650;BME280;46162;57.568;25.814;2022-08-21T01:31:19;100969.78;;;14.64;100.00
59650;BME280;46162;57.568;25.814;2022-08-21T01:33:53;100964.84;;;14.68;100.00
59650;BME280;46162;57.568;25.814;2022-08-21T01:36:24;100965.38;;;14.55;100.00
59650;BME280;46162;57.568;25.814;2022-08-21T01:38:52;100967.38;;;14.61;100.00
59650;BME280;46162;57.568;25.814;2022-08-21T01:41:21;100969.75;;;14.89;100.00
59650;BME280;46162;57.568;25.814;2022-08-21T01:43:50;100960.88;;;14.95;100.00
59650;BME280;46162;57.568;25.814;2022-08-21T01:46:18;100971.41;;;14.98;100.00
59650;BME280;46162;57.568;25.814;2022-08-21T01:48:47;100974.16;;;14.90;100.00
59650;BME280;46162;57.568;25.814;2022-08-21T01:51:16;100967.19;;;14.87;100.00
59650;BME280;46162;57.568;25.814;2022-08-21T01:53:46;100967.00;;;14.80;100.00
59650;BME280;46162;57.568;25.814;2022-08-21T01:56:17;100963.47;;;14.72;100.00
59650;BME280;46162;57.568;25.814;2022-08-21T01:58:46;100966.03;;;14.65;100.00
59650;BME280;46162;57.568;25.814;2022-08-21T02:01:15;100973.28;;;14.81;100.00
59650;BME280;46162;57.568;25.814;2022-08-21T02:03:44;100967.03;;;14.56;100.00
59650;BME280;46162;57.568;25.814;2022-08-21T02:06:15;100958.19;;;14.46;100.00
59650;BME280;46162;57.568;25.814;2022-08-21T02:08:46;100966.03;;;14.32;100.00
59650;BME280;46162;57.568;25.814;2022-08-21T02:11:17;100967.03;;;14.23;100.00
59650;BME280;46162;57.568;25.814;2022-08-21T02:13:46;100965.16;;;14.24;100.00
59650;BME280;46162;57.568;25.814;2022-08-21T02:16:15;100973.81;;;14.27;100.00
59650;BME280;46162;57.568;25.814;2022-08-21T02:18:45;100970.09;;;14.28;100.00
59650;BME280;46162;57.568;25.814;2022-08-21T02:21:14;100969.75;;;14.31;100.00
59650;BME280;46162;57.568;25.814;2022-08-21T02:23:44;100968.91;;;14.47;100.00
59650;BME280;46162;57.568;25.814;2022-08-21T02:26:14;100972.78;;;14.36;100.00
59650;BME280;46162;57.568;25.814;2022-08-21T02:28:42;100960.75;;;14.23;100.00
59650;BME280;46162;57.568;25.814;2022-08-21T02:31:11;100965.16;;;14.48;100.00
59650;BME280;46162;57.568;25.814;2022-08-21T02:33:40;100965.53;;;14.53;100.00
59650;BME280;46162;57.568;25.814;2022-08-21T02:36:10;100964.16;;;14.57;100.00
59650;BME280;46162;57.568;25.814;2022-08-21T02:38:41;100962.13;;;14.68;100.00
59650;BME280;46162;57.568;25.814;2022-08-21T02:41:12;100972.13;;;14.43;100.00
59650;BME280;46162;57.568;25.814;2022-08-21T02:43:43;100968.25;;;14.53;100.00
59650;BME280;46162;57.568;25.814;2022-08-21T02:46:15;100969.25;;;14.52;100.00
59650;BME280;46162;57.568;25.814;2022-08-21T02:48:45;100971.31;;;14.67;100.00
59650;BME280;46162;57.568;25.814;2022-08-21T02:51:16;100971.97;;;14.52;100.00
59650;BME280;46162;57.568;25.814;2022-08-21T02:53:46;100978.94;;;14.63;100.00
59650;BME280;46162;57.568;25.814;2022-08-21T02:56:17;100975.50;;;14.53;100.00
59650;BME280;46162;57.568;25.814;2022-08-21T02:58:49;100968.56;;;14.50;100.00
59650;BME280;46162;57.568;25.814;2022-08-21T03:01:20;100971.44;;;14.49;100.00
59650;BME280;46162;57.568;25.814;2022-08-21T03:03:49;100978.25;;;14.45;100.00
59650;BME280;46162;57.568;25.814;2022-08-21T03:06:20;100980.09;;;14.36;100.00
59650;BME280;46162;57.568;25.814;2022-08-21T03:08:49;100987.09;;;14.47;100.00
59650;BME280;46162;57.568;25.814;2022-08-21T03:11:18;100988.41;;;14.51;100.00
59650;BME280;46162;57.568;25.814;2022-08-21T03:13:49;100985.06;;;14.57;100.00
59650;BME280;46162;57.568;25.814;2022-08-21T03:16:17;100976.38;;;14.53;100.00
59650;BME280;46162;57.568;25.814;2022-08-21T03:18:47;100979.59;;;14.73;100.00
59650;BME280;46162;57.568;25.814;2022-08-21T03:21:16;100977.91;;;14.72;100.00
59650;BME280;46162;57.568;25.814;2022-08-21T03:23:46;100980.47;;;14.74;100.00
59650;BME280;46162;57.568;25.814;2022-08-21T03:26:16;100986.41;;;14.61;100.00
59650;BME280;46162;57.568;25.814;2022-08-21T03:28:45;100980.97;;;14.61;100.00
59650;BME280;46162;57.568;25.814;2022-08-21T03:31:15;100976.22;;;14.63;100.00
59650;BME280;46162;57.568;25.814;2022-08-21T03:33:45;100983.03;;;14.59;100.00
59650;BME280;46162;57.568;25.814;2022-08-21T03:36:13;100987.09;;;14.63;100.00
59650;BME280;46162;57.568;25.814;2022-08-21T03:38:42;100979.63;;;14.57;100.00
59650;BME280;46162;57.568;25.814;2022-08-21T03:41:10;100982.66;;;14.70;100.00
59650;BME280;46162;57.568;25.814;2022-08-21T03:43:39;100986.75;;;14.74;100.00
59650;BME280;46162;57.568;25.814;2022-08-21T03:46:08;100977.91;;;14.72;100.00
59650;BME280;46162;57.568;25.814;2022-08-21T03:48:40;100986.88;;;14.81;100.00
59650;BME280;46162;57.568;25.814;2022-08-21T03:51:08;100982.66;;;14.78;100.00
59650;BME280;46162;57.568;25.814;2022-08-21T03:53:37;100993.19;;;14.81;100.00
59650;BME280;46162;57.568;25.814;2022-08-21T03:56:06;100991.50;;;14.89;100.00
59650;BME280;46162;57.568;25.814;2022-08-21T03:58:35;100988.41;;;14.92;100.00
59650;BME280;46162;57.568;25.814;2022-08-21T04:01:04;100994.34;;;14.95;100.00
59650;BME280;46162;57.568;25.814;2022-08-21T04:03:36;100988.75;;;14.97;100.00
59650;BME280;46162;57.568;25.814;2022-08-21T04:06:07;100984.84;;;14.91;100.00
59650;BME280;46162;57.568;25.814;2022-08-21T04:08:36;100992.13;;;15.07;100.00
59650;BME280;46162;57.568;25.814;2022-08-21T04:11:05;101000.44;;;15.05;100.00
59650;BME280;46162;57.568;25.814;2022-08-21T04:13:34;100998.75;;;15.04;100.00
59650;BME280;46162;57.568;25.814;2022-08-21T04:16:11;100994.31;;;15.12;100.00
59650;BME280;46162;57.568;25.814;2022-08-21T04:18:40;100992.28;;;15.14;100.00
59650;BME280;46162;57.568;25.814;2022-08-21T04:21:11;100996.72;;;15.07;100.00
59650;BME280;46162;57.568;25.814;2022-08-21T04:23:41;100998.19;;;15.17;100.00
59650;BME280;46162;57.568;25.814;2022-08-21T04:26:09;100997.00;;;15.20;100.00
59650;BME280;46162;57.568;25.814;2022-08-21T04:28:38;100994.25;;;15.28;100.00
59650;BME280;46162;57.568;25.814;2022-08-21T04:31:07;100996.47;;;15.24;100.00
59650;BME280;46162;57.568;25.814;2022-08-21T04:33:36;100988.97;;;15.35;100.00
59650;BME280;46162;57.568;25.814;2022-08-21T04:36:06;101001.00;;;15.40;100.00
59650;BME280;46162;57.568;25.814;2022-08-21T04:38:36;101002.53;;;15.43;100.00
59650;BME280;46162;57.568;25.814;2022-08-21T04:41:10;100997.75;;;15.53;100.00
59650;BME280;46162;57.568;25.814;2022-08-21T04:43:39;100996.03;;;15.52;100.00
59650;BME280;46162;57.568;25.814;2022-08-21T04:46:08;100995.97;;;15.68;100.00
59650;BME280;46162;57.568;25.814;2022-08-21T04:48:40;101003.13;;;15.69;100.00
59650;BME280;46162;57.568;25.814;2022-08-21T04:51:11;101009.41;;;15.78;100.00
59650;BME280;46162;57.568;25.814;2022-08-21T04:53:46;101009.84;;;15.90;100.00
59650;BME280;46162;57.568;25.814;2022-08-21T04:56:20;101006.09;;;15.91;100.00
59650;BME280;46162;57.568;25.814;2022-08-21T04:58:51;101007.44;;;15.95;100.00
59650;BME280;46162;57.568;25.814;2022-08-21T05:01:23;100999.69;;;16.07;100.00
59650;BME280;46162;57.568;25.814;2022-08-21T05:03:56;101003.50;;;16.21;100.00
59650;BME280;46162;57.568;25.814;2022-08-21T05:06:27;101002.84;;;16.19;100.00
59650;BME280;46162;57.568;25.814;2022-08-21T05:08:58;101008.34;;;16.10;100.00
59650;BME280;46162;57.568;25.814;2022-08-21T05:11:28;101014.72;;;16.26;100.00
59650;BME280;46162;57.568;25.814;2022-08-21T05:13:57;101000.78;;;16.21;100.00
59650;BME280;46162;57.568;25.814;2022-08-21T05:16:26;100998.59;;;16.39;100.00
59650;BME280;46162;57.568;25.814;2022-08-21T05:19:04;101005.38;;;16.43;100.00
59650;BME280;46162;57.568;25.814;2022-08-21T05:21:33;101008.41;;;16.48;100.00
59650;BME280;46162;57.568;25.814;2022-08-21T05:24:04;100995.38;;;16.59;100.00
59650;BME280;46162;57.568;25.814;2022-08-21T05:26:32;101000.50;;;16.76;100.00
59650;BME280;46162;57.568;25.814;2022-08-21T05:29:14;100999.91;;;16.89;100.00
59650;BME280;46162;57.568;25.814;2022-08-21T05:31:45;100998.94;;;16.82;100.00
59650;BME280;46162;57.568;25.814;2022-08-21T05:34:17;100986.84;;;17.00;100.00
59650;BME280;46162;57.568;25.814;2022-08-21T05:36:47;100991.34;;;17.07;100.00
59650;BME280;46162;57.568;25.814;2022-08-21T05:39:17;100999.28;;;17.17;100.00
59650;BME280;46162;57.568;25.814;2022-08-21T05:41:46;100991.19;;;17.24;100.00
59650;BME280;46162;57.568;25.814;2022-08-21T05:44:16;100993.13;;;17.45;100.00
59650;BME280;46162;57.568;25.814;2022-08-21T05:46:46;100995.22;;;17.42;100.00
59650;BME280;46162;57.568;25.814;2022-08-21T05:49:15;100988.78;;;17.50;100.00
59650;BME280;46162;57.568;25.814;2022-08-21T05:51:43;100993.97;;;17.60;100.00
59650;BME280;46162;57.568;25.814;2022-08-21T05:54:12;100993.94;;;17.75;100.00
59650;BME280;46162;57.568;25.814;2022-08-21T05:56:42;101005.25;;;17.72;100.00
59650;BME280;46162;57.568;25.814;2022-08-21T05:59:11;101001.69;;;17.86;100.00
59650;BME280;46162;57.568;25.814;2022-08-21T06:01:41;101004.19;;;17.88;100.00
59650;BME280;46162;57.568;25.814;2022-08-21T06:04:09;101004.56;;;17.99;100.00
59650;BME280;46162;57.568;25.814;2022-08-21T06:06:38;101004.50;;;18.14;100.00
59650;BME280;46162;57.568;25.814;2022-08-21T06:09:07;101002.88;;;18.20;100.00
59650;BME280;46162;57.568;25.814;2022-08-21T06:11:36;101010.00;;;18.36;100.00
59650;BME280;46162;57.568;25.814;2022-08-21T06:14:06;101003.34;;;18.23;100.00
59650;BME280;46162;57.568;25.814;2022-08-21T06:16:35;101001.00;;;18.42;100.00
59650;BME280;46162;57.568;25.814;2022-08-21T06:19:03;101005.19;;;18.38;100.00
59650;BME280;46162;57.568;25.814;2022-08-21T06:21:32;101005.03;;;18.46;100.00
59650;BME280;46162;57.568;25.814;2022-08-21T06:24:01;101004.56;;;18.64;100.00
59650;BME280;46162;57.568;25.814;2022-08-21T06:26:30;100998.44;;;18.62;100.00
59650;BME280;46162;57.568;25.814;2022-08-21T06:28:59;101005.28;;;18.73;100.00
59650;BME280;46162;57.568;25.814;2022-08-21T06:31:29;101000.22;;;18.69;100.00
59650;BME280;46162;57.568;25.814;2022-08-21T06:33:58;100993.19;;;18.82;100.00
59650;BME280;46162;57.568;25.814;2022-08-21T06:36:27;100986.50;;;18.91;100.00
59650;BME280;46162;57.568;25.814;2022-08-21T06:38:56;100988.03;;;19.00;100.00
59650;BME280;46162;57.568;25.814;2022-08-21T06:41:26;100975.13;;;19.22;100.00
59650;BME280;46162;57.568;25.814;2022-08-21T06:43:56;100977.28;;;19.27;100.00
59650;BME280;46162;57.568;25.814;2022-08-21T06:46:28;100977.19;;;19.13;100.00
59650;BME280;46162;57.568;25.814;2022-08-21T06:48:58;100967.88;;;19.43;100.00
59650;BME280;46162;57.568;25.814;2022-08-21T06:51:27;100966.00;;;19.50;100.00
59650;BME280;46162;57.568;25.814;2022-08-21T06:53:56;100970.22;;;19.52;100.00
59650;BME280;46162;57.568;25.814;2022-08-21T06:56:25;100965.22;;;19.56;100.00
59650;BME280;46162;57.568;25.814;2022-08-21T06:58:55;100965.22;;;19.63;100.00
59650;BME280;46162;57.568;25.814;2022-08-21T07:01:25;100964.63;;;19.67;100.00
59650;BME280;46162;57.568;25.814;2022-08-21T07:03:55;100958.13;;;19.75;100.00
59650;BME280;46162;57.568;25.814;2022-08-21T07:06:25;100959.34;;;19.66;100.00
59650;BME280;46162;57.568;25.814;2022-08-21T07:08:54;100956.88;;;19.71;100.00
59650;BME280;46162;57.568;25.814;2022-08-21T07:11:25;100948.69;;;19.84;100.00
59650;BME280;46162;57.568;25.814;2022-08-21T07:13:54;100940.47;;;19.84;100.00
59650;BME280;46162;57.568;25.814;2022-08-21T07:16:23;100942.34;;;19.90;100.00
59650;BME280;46162;57.568;25.814;2022-08-21T07:18:52;100939.84;;;19.89;100.00
59650;BME280;46162;57.568;25.814;2022-08-21T07:21:21;100929.97;;;20.01;100.00
59650;BME280;46162;57.568;25.814;2022-08-21T07:23:53;100931.00;;;19.93;100.00
59650;BME280;46162;57.568;25.814;2022-08-21T07:26:23;100932.94;;;20.13;100.00
59650;BME280;46162;57.568;25.814;2022-08-21T07:28:52;100930.38;;;20.05;100.00
59650;BME280;46162;57.568;25.814;2022-08-21T07:31:23;100928.47;;;20.05;100.00
59650;BME280;46162;57.568;25.814;2022-08-21T07:33:52;100931.66;;;20.22;100.00
59650;BME280;46162;57.568;25.814;2022-08-21T07:36:21;100936.31;;;20.22;100.00
59650;BME280;46162;57.568;25.814;2022-08-21T07:38:50;100929.34;;;20.26;100.00
59650;BME280;46162;57.568;25.814;2022-08-21T07:41:22;100935.69;;;20.26;100.00
59650;BME280;46162;57.568;25.814;2022-08-21T07:43:52;100931.66;;;20.22;100.00
59650;BME280;46162;57.568;25.814;2022-08-21T07:46:20;100925.75;;;19.98;100.00
59650;BME280;46162;57.568;25.814;2022-08-21T07:48:49;100923.63;;;19.94;100.00
59650;BME280;46162;57.568;25.814;2022-08-21T07:51:23;100917.69;;;19.90;100.00
59650;BME280;46162;57.568;25.814;2022-08-21T07:53:54;100927.84;;;20.03;100.00
59650;BME280;46162;57.568;25.814;2022-08-21T07:56:24;100915.22;;;20.22;100.00
59650;BME280;46162;57.568;25.814;2022-08-21T07:58:53;100918.97;;;20.08;100.00
59650;BME280;46162;57.568;25.814;2022-08-21T08:01:24;100914.19;;;20.23;100.00
59650;BME280;46162;57.568;25.814;2022-08-21T08:03:54;100915.22;;;20.29;100.00
59650;BME280;46162;57.568;25.814;2022-08-21T08:06:23;100904.66;;;20.52;100.00
59650;BME280;46162;57.568;25.814;2022-08-21T08:08:53;100909.53;;;20.44;100.00
59650;BME280;46162;57.568;25.814;2022-08-21T08:11:21;100911.44;;;20.43;100.00
59650;BME280;46162;57.568;25.814;2022-08-21T08:13:53;100911.00;;;20.33;100.00
59650;BME280;46162;57.568;25.814;2022-08-21T08:16:21;100908.06;;;20.48;100.00
59650;BME280;46162;57.568;25.814;2022-08-21T08:18:50;100903.63;;;20.53;100.00
59650;BME280;46162;57.568;25.814;2022-08-21T08:21:19;100903.84;;;20.58;100.00
59650;BME280;46162;57.568;25.814;2022-08-21T08:23:48;100901.75;;;20.60;100.00
59650;BME280;46162;57.568;25.814;2022-08-21T08:26:17;100891.41;;;20.56;100.00
59650;BME280;46162;57.568;25.814;2022-08-21T08:28:46;100892.25;;;20.70;100.00
59650;BME280;46162;57.568;25.814;2022-08-21T08:31:16;100894.94;;;20.76;100.00
59650;BME280;46162;57.568;25.814;2022-08-21T08:33:45;100902.16;;;20.71;100.00
59650;BME280;46162;57.568;25.814;2022-08-21T08:36:15;100900.91;;;20.60;100.00
59650;BME280;46162;57.568;25.814;2022-08-21T08:38:46;100892.84;;;20.52;100.00
59650;BME280;46162;57.568;25.814;2022-08-21T08:41:18;100907.19;;;20.54;100.00
59650;BME280;46162;57.568;25.814;2022-08-21T08:44:00;100903.84;;;20.65;100.00
59650;BME280;46162;57.568;25.814;2022-08-21T08:46:35;100898.97;;;20.74;100.00
59650;BME280;46162;57.568;25.814;2022-08-21T08:49:09;100893.03;;;20.83;100.00
59650;BME280;46162;57.568;25.814;2022-08-21T08:51:45;100900.63;;;20.95;100.00
59650;BME280;46162;57.568;25.814;2022-08-21T08:54:24;100900.25;;;20.85;100.00
59650;BME280;46162;57.568;25.814;2022-08-21T08:56:59;100894.50;;;20.86;100.00
59650;BME280;46162;57.568;25.814;2022-08-21T08:59:36;100894.31;;;20.81;100.00
59650;BME280;46162;57.568;25.814;2022-08-21T09:02:10;100892.41;;;20.95;100.00
59650;BME280;46162;57.568;25.814;2022-08-21T09:04:39;100897.25;;;20.93;100.00
59650;BME280;46162;57.568;25.814;2022-08-21T09:07:13;100891.78;;;20.79;100.00
59650;BME280;46162;57.568;25.814;2022-08-21T09:09:55;100894.75;;;20.85;100.00
59650;BME280;46162;57.568;25.814;2022-08-21T09:12:36;100886.47;;;20.98;100.00
59650;BME280;46162;57.568;25.814;2022-08-21T09:15:14;100882.63;;;21.05;100.00
59650;BME280;46162;57.568;25.814;2022-08-21T09:18:11;100898.72;;;20.95;100.00
59650;BME280;46162;57.568;25.814;2022-08-21T09:20:54;100882.06;;;20.97;100.00
59650;BME280;46162;57.568;25.814;2022-08-21T09:23:29;100878.81;;;21.07;100.00
59650;BME280;46162;57.568;25.814;2022-08-21T09:26:02;100888.13;;;21.12;100.00
59650;BME280;46162;57.568;25.814;2022-08-21T09:28:35;100882.63;;;21.12;100.00
59650;BME280;46162;57.568;25.814;2022-08-21T09:31:07;100888.25;;;21.31;100.00
59650;BME280;46162;57.568;25.814;2022-08-21T09:33:37;100884.00;;;21.35;100.00
59650;BME280;46162;57.568;25.814;2022-08-21T09:36:06;100887.53;;;21.48;100.00
59650;BME280;46162;57.568;25.814;2022-08-21T09:38:36;100879.28;;;21.55;100.00
59650;BME280;46162;57.568;25.814;2022-08-21T09:41:08;100871.50;;;21.52;100.00
59650;BME280;46162;57.568;25.814;2022-08-21T09:43:37;100873.13;;;21.60;100.00
59650;BME280;46162;57.568;25.814;2022-08-21T09:46:11;100873.13;;;21.60;100.00
59650;BME280;46162;57.568;25.814;2022-08-21T09:48:44;100880.91;;;21.69;100.00
59650;BME280;46162;57.568;25.814;2022-08-21T09:51:15;100875.59;;;21.68;100.00
59650;BME280;46162;57.568;25.814;2022-08-21T09:53:47;100874.28;;;21.39;100.00
59650;BME280;46162;57.568;25.814;2022-08-21T09:56:25;100878.84;;;21.58;100.00
59650;BME280;46162;57.568;25.814;2022-08-21T09:59:18;100869.56;;;21.53;100.00
59650;BME280;46162;57.568;25.814;2022-08-21T10:01:49;100866.81;;;21.53;100.00
59650;BME280;46162;57.568;25.814;2022-08-21T10:04:27;100864.69;;;21.61;100.00
59650;BME280;46162;57.568;25.814;2022-08-21T10:07:06;100868.44;;;21.67;100.00
59650;BME280;46162;57.568;25.814;2022-08-21T10:09:35;100855.81;;;21.59;100.00
59650;BME280;46162;57.568;25.814;2022-08-21T10:12:12;100859.69;;;21.45;100.00
59650;BME280;46162;57.568;25.814;2022-08-21T10:14:53;100856.47;;;21.55;100.00
59650;BME280;46162;57.568;25.814;2022-08-21T10:17:33;100855.56;;;21.61;100.00
59650;BME280;46162;57.568;25.814;2022-08-21T10:20:10;100850.38;;;21.46;100.00
59650;BME280;46162;57.568;25.814;2022-08-21T10:22:49;100851.53;;;21.63;100.00
59650;BME280;46162;57.568;25.814;2022-08-21T10:25:33;100855.69;;;21.79;100.00
59650;BME280;46162;57.568;25.814;2022-08-21T10:28:19;100847.81;;;21.83;100.00
59650;BME280;46162;57.568;25.814;2022-08-21T10:30:56;100850.16;;;21.86;100.00
59650;BME280;46162;57.568;25.814;2022-08-21T10:33:38;100848.06;;;21.81;100.00
59650;BME280;46162;57.568;25.814;2022-08-21T10:36:18;100854.28;;;21.95;100.00
59650;BME280;46162;57.568;25.814;2022-08-21T10:39:07;100851.44;;;22.08;100.00
59650;BME280;46162;57.568;25.814;2022-08-21T10:42:18;100854.47;;;22.00;100.00
59650;BME280;46162;57.568;25.814;2022-08-21T10:45:02;100855.38;;;21.94;100.00
59650;BME280;46162;57.568;25.814;2022-08-21T10:47:43;100855.09;;;22.02;100.00
59650;BME280;46162;57.568;25.814;2022-08-21T10:50:22;100855.09;;;22.02;100.00
59650;BME280;46162;57.568;25.814;2022-08-21T10:53:07;100850.38;;;22.09;100.00
59650;BME280;46162;57.568;25.814;2022-08-21T10:55:43;100846.44;;;21.99;100.00
59650;BME280;46162;57.568;25.814;2022-08-21T10:58:29;100849.13;;;22.05;100.00
59650;BME280;46162;57.568;25.814;2022-08-21T11:01:09;100845.09;;;22.08;100.00
59650;BME280;46162;57.568;25.814;2022-08-21T11:03:43;100840.00;;;22.11;100.00
59650;BME280;46162;57.568;25.814;2022-08-21T11:06:16;100843.94;;;22.22;100.00
59650;BME280;46162;57.568;25.814;2022-08-21T11:08:51;100839.75;;;22.20;100.00
59650;BME280;46162;57.568;25.814;2022-08-21T11:11:25;100839.19;;;22.36;100.00
59650;BME280;46162;57.568;25.814;2022-08-21T11:14:07;100832.75;;;22.42;100.00
59650;BME280;46162;57.568;25.814;2022-08-21T11:16:42;100832.13;;;22.40;100.00
59650;BME280;46162;57.568;25.814;2022-08-21T11:19:17;100834.38;;;22.50;100.00
59650;BME280;46162;57.568;25.814;2022-08-21T11:21:52;100827.88;;;22.44;100.00
59650;BME280;46162;57.568;25.814;2022-08-21T11:24:30;100827.06;;;22.81;100.00
59650;BME280;46162;57.568;25.814;2022-08-21T11:27:06;100825.00;;;22.76;100.00
59650;BME280;46162;57.568;25.814;2022-08-21T11:29:40;100820.84;;;22.48;100.00
59650;BME280;46162;57.568;25.814;2022-08-21T11:32:26;100823.44;;;22.43;100.00
59650;BME280;46162;57.568;25.814;2022-08-21T11:35:05;100824.91;;;22.46;100.00
59650;BME280;46162;57.568;25.814;2022-08-21T11:37:49;100814.41;;;22.11;100.00
59650;BME280;46162;57.568;25.814;2022-08-21T11:40:36;100826.75;;;22.02;100.00
59650;BME280;46162;57.568;25.814;2022-08-21T11:43:11;100829.09;;;21.98;100.00
59650;BME280;46162;57.568;25.814;2022-08-21T11:45:44;100828.50;;;21.96;100.00
59650;BME280;46162;57.568;25.814;2022-08-21T11:48:31;100826.53;;;22.03;100.00
59650;BME280;46162;57.568;25.814;2022-08-21T11:51:06;100829.03;;;21.80;100.00
59650;BME280;46162;57.568;25.814;2022-08-21T11:53:40;100825.91;;;22.01;100.00
59650;BME280;46162;57.568;25.814;2022-08-21T11:56:25;100824.75;;;22.16;100.00
59650;BME280;46162;57.568;25.814;2022-08-21T11:58:59;100821.47;;;22.00;100.00
59650;BME280;46162;57.568;25.814;2022-08-21T12:01:33;100815.91;;;22.07;100.00
59650;BME280;46162;57.568;25.814;2022-08-21T12:04:07;100815.78;;;22.27;100.00
59650;BME280;46162;57.568;25.814;2022-08-21T12:06:39;100815.81;;;22.20;100.00
59650;BME280;46162;57.568;25.814;2022-08-21T12:09:10;100819.91;;;22.36;100.00
59650;BME280;46162;57.568;25.814;2022-08-21T12:12:03;100823.72;;;22.35;100.00
59650;BME280;46162;57.568;25.814;2022-08-21T12:14:38;100823.38;;;22.50;100.00
59650;BME280;46162;57.568;25.814;2022-08-21T12:17:16;100827.81;;;22.69;100.00
59650;BME280;46162;57.568;25.814;2022-08-21T12:20:15;100821.31;;;22.64;100.00
59650;BME280;46162;57.568;25.814;2022-08-21T12:22:52;100819.72;;;22.74;100.00
59650;BME280;46162;57.568;25.814;2022-08-21T12:25:22;100817.34;;;22.60;100.00
59650;BME280;46162;57.568;25.814;2022-08-21T12:28:02;100815.91;;;22.75;100.00
59650;BME280;46162;57.568;25.814;2022-08-21T12:30:38;100817.59;;;22.95;100.00
59650;BME280;46162;57.568;25.814;2022-08-21T12:33:21;100818.59;;;23.01;100.00
59650;BME280;46162;57.568;25.814;2022-08-21T12:35:52;100813.97;;;22.94;100.00
59650;BME280;46162;57.568;25.814;2022-08-21T12:38:31;100817.28;;;23.03;100.00
59650;BME280;46162;57.568;25.814;2022-08-21T12:41:02;100813.72;;;23.03;100.00
59650;BME280;46162;57.568;25.814;2022-08-21T12:43:38;100815.16;;;23.05;100.00
59650;BME280;46162;57.568;25.814;2022-08-21T12:46:15;100813.94;;;23.01;100.00
59650;BME280;46162;57.568;25.814;2022-08-21T12:48:49;100816.72;;;22.94;100.00
59650;BME280;46162;57.568;25.814;2022-08-21T12:51:26;100813.81;;;22.89;100.00
59650;BME280;46162;57.568;25.814;2022-08-21T12:53:58;100812.63;;;23.04;100.00
59650;BME280;46162;57.568;25.814;2022-08-21T12:56:29;100810.16;;;23.14;100.00